Time;durP1;ratioP1;P1;durP2;ratioP2;P2;SDS_P1;SDS_P2;PMS_P1;PMS_P2;Temp;Humidity;BMP_temperature;BMP_pressure;BME280_temperature;BME280_humidity;BME280_pressure;Samples;Min_cycle;Max_cycle;Signal;HPM_P1;HPM_P2
2022/01/09 00:01:25;;;;;;;9.53;6.97;;;;;;;;;;5071793;28;20462;-54
2022/01/09 00:03:51;;;;;;;9.17;6.63;;;;;;;;;;5072036;28;20759;-54
2022/01/09 00:06:17;;;;;;;7.73;7.03;;;;;;;;;;5070409;28;20513;-57
2022/01/09 00:08:46;;;;;;;15.30;7.70;;;;;;;;;;5071746;28;20415;-54
2022/01/09 00:11:13;;;;;;;11.97;7.50;;;;;;;;;;5071877;28;20446;-55
2022/01/09 00:13:39;;;;;;;10.17;8.00;;;;;;;;;;5075340;28;20457;-56
2022/01/09 00:16:05;;;;;;;8.77;7.10;;;;;;;;;;5075201;28;20438;-55
2022/01/09 00:18:31;;;;;;;7.70;6.63;;;;;;;;;;5075288;28;20410;-54
2022/01/09 00:20:57;;;;;;;6.80;5.60;;;;;;;;;;5075091;28;20489;-55
2022/01/09 00:23:24;;;;;;;5.93;5.43;;;;;;;;;;5075051;28;20406;-56
2022/01/09 00:25:50;;;;;;;5.73;5.23;;;;;;;;;;5075406;28;20442;-55
2022/01/09 00:28:16;;;;;;;5.00;4.70;;;;;;;;;;5075196;28;20402;-56
2022/01/09 00:30:42;;;;;;;6.17;5.67;;;;;;;;;;5075291;28;20475;-55
2022/01/09 00:33:08;;;;;;;6.77;5.30;;;;;;;;;;5074978;28;20501;-56
2022/01/09 00:35:35;;;;;;;7.10;5.90;;;;;;;;;;5075052;28;20411;-56
2022/01/09 00:38:01;;;;;;;6.33;5.30;;;;;;;;;;5074964;28;20418;-57
2022/01/09 00:40:27;;;;;;;6.57;5.27;;;;;;;;;;5074775;28;20532;-56
2022/01/09 00:42:53;;;;;;;5.27;4.77;;;;;;;;;;5074999;28;20414;-59
2022/01/09 00:45:19;;;;;;;6.13;5.57;;;;;;;;;;5075032;28;20411;-58
2022/01/09 00:47:45;;;;;;;6.07;5.50;;;;;;;;;;5074971;28;20403;-60
2022/01/09 00:50:12;;;;;;;5.27;4.87;;;;;;;;;;5075091;28;20414;-56
2022/01/09 00:52:38;;;;;;;6.30;5.67;;;;;;;;;;5074561;28;20524;-61
2022/01/09 00:55:05;;;;;;;7.17;5.30;;;;;;;;;;5074980;28;20414;-58
2022/01/09 00:57:31;;;;;;;5.30;4.90;;;;;;;;;;5074848;28;20399;-60
2022/01/09 00:59:57;;;;;;;5.13;4.70;;;;;;;;;;5074559;28;20508;-57
2022/01/09 01:02:23;;;;;;;5.03;4.60;;;;;;;;;;5074699;28;20931;-55
2022/01/09 01:04:51;;;;;;;5.73;5.23;;;;;;;;;;5074693;28;20422;-58
2022/01/09 01:07:19;;;;;;;4.53;4.13;;;;;;;;;;5074828;28;20759;-58
2022/01/09 01:09:44;;;;;;;5.60;5.20;;;;;;;;;;5074699;28;20415;-56
2022/01/09 01:12:10;;;;;;;5.20;4.60;;;;;;;;;;5074471;28;20411;-55
2022/01/09 01:14:37;;;;;;;4.93;4.53;;;;;;;;;;5074393;28;20419;-58
2022/01/09 01:17:03;;;;;;;4.83;4.43;;;;;;;;;;5074395;28;20407;-56
2022/01/09 01:19:29;;;;;;;4.80;4.50;;;;;;;;;;5074465;28;20469;-56
2022/01/09 01:21:58;;;;;;;5.43;4.80;;;;;;;;;;5074170;28;20537;-58
2022/01/09 01:24:24;;;;;;;4.53;4.33;;;;;;;;;;5072708;28;20441;-56
2022/01/09 01:26:50;;;;;;;4.30;4.10;;;;;;;;;;5074121;28;20751;-56
2022/01/09 01:29:17;;;;;;;5.00;4.60;;;;;;;;;;5074375;28;20458;-55
2022/01/09 01:31:43;;;;;;;5.23;4.73;;;;;;;;;;5074912;28;20413;-56
2022/01/09 01:34:12;;;;;;;4.70;4.40;;;;;;;;;;5073923;28;20433;-56
2022/01/09 01:36:38;;;;;;;4.60;4.20;;;;;;;;;;5074137;28;20786;-56
2022/01/09 01:39:04;;;;;;;6.17;5.07;;;;;;;;;;5073854;28;20399;-56
2022/01/09 01:41:30;;;;;;;4.60;4.30;;;;;;;;;;5073635;28;20977;-54
2022/01/09 01:43:56;;;;;;;7.00;4.67;;;;;;;;;;5073691;28;20399;-56
2022/01/09 01:46:22;;;;;;;4.60;4.30;;;;;;;;;;5073689;28;20459;-55
2022/01/09 01:48:48;;;;;;;4.37;4.17;;;;;;;;;;5073481;28;20416;-56
2022/01/09 01:51:14;;;;;;;5.10;4.77;;;;;;;;;;5073746;28;20474;-56
2022/01/09 01:53:40;;;;;;;4.70;4.40;;;;;;;;;;5073663;28;20403;-56
2022/01/09 01:56:07;;;;;;;9.53;4.60;;;;;;;;;;5073577;28;20752;-55
2022/01/09 01:58:34;;;;;;;4.60;4.30;;;;;;;;;;5073210;28;20411;-55
2022/01/09 02:01:01;;;;;;;4.50;4.23;;;;;;;;;;5073453;28;20473;-57
2022/01/09 02:03:27;;;;;;;4.77;4.40;;;;;;;;;;5071862;28;20417;-59
2022/01/09 02:05:53;;;;;;;5.53;4.87;;;;;;;;;;5073202;28;20452;-56
2022/01/09 02:08:20;;;;;;;4.90;4.60;;;;;;;;;;5073170;28;20399;-56
2022/01/09 02:10:46;;;;;;;4.50;4.10;;;;;;;;;;5073223;28;20518;-56
2022/01/09 02:13:12;;;;;;;5.20;4.80;;;;;;;;;;5073157;28;20417;-59
2022/01/09 02:15:46;;;;;;;4.97;4.57;;;;;;;;;;5073095;28;20879;-54
2022/01/09 02:18:17;;;;;;;4.87;4.50;;;;;;;;;;5073414;28;20403;-55
2022/01/09 02:20:43;;;;;;;4.83;4.43;;;;;;;;;;5072781;28;20481;-53
2022/01/09 02:23:10;;;;;;;5.40;4.30;;;;;;;;;;5072835;28;20442;-57
2022/01/09 02:25:37;;;;;;;4.37;4.07;;;;;;;;;;5072800;28;20487;-56
2022/01/09 02:28:03;;;;;;;5.30;4.80;;;;;;;;;;5072791;28;20418;-56
2022/01/09 02:30:32;;;;;;;5.23;4.83;;;;;;;;;;5072719;28;20450;-57
2022/01/09 02:32:58;;;;;;;4.90;4.50;;;;;;;;;;5072980;28;20410;-58
2022/01/09 02:35:25;;;;;;;4.47;4.07;;;;;;;;;;5072241;28;20583;-56
2022/01/09 02:37:51;;;;;;;5.00;4.60;;;;;;;;;;5072741;28;20406;-58
2022/01/09 02:40:17;;;;;;;4.80;4.50;;;;;;;;;;5072779;28;20466;-56
2022/01/09 02:42:43;;;;;;;5.10;4.60;;;;;;;;;;5073022;28;20759;-56
2022/01/09 02:45:09;;;;;;;4.87;4.57;;;;;;;;;;5072526;28;20415;-55
2022/01/09 02:47:37;;;;;;;5.00;4.60;;;;;;;;;;5072611;28;20803;-57
2022/01/09 02:50:30;;;;;;;5.60;4.43;;;;;;;;;;5072682;28;20411;-56
2022/01/09 02:52:58;;;;;;;5.20;4.80;;;;;;;;;;5072055;28;20915;-57
2022/01/09 02:55:25;;;;;;;5.30;4.90;;;;;;;;;;5072526;28;20441;-55
2022/01/09 02:57:55;;;;;;;5.90;4.30;;;;;;;;;;5072503;28;20413;-56
2022/01/09 03:00:22;;;;;;;5.20;4.70;;;;;;;;;;5072342;28;20546;-56
2022/01/09 03:02:48;;;;;;;5.20;4.70;;;;;;;;;;5072376;28;20869;-56
2022/01/09 03:05:14;;;;;;;5.00;4.70;;;;;;;;;;5072420;28;20700;-58
2022/01/09 03:07:41;;;;;;;4.60;4.20;;;;;;;;;;5072287;28;20403;-56
2022/01/09 03:10:08;;;;;;;5.43;5.03;;;;;;;;;;5072147;28;20399;-55
2022/01/09 03:12:34;;;;;;;5.63;5.10;;;;;;;;;;5072163;28;20771;-57
2022/01/09 03:15:00;;;;;;;5.50;5.10;;;;;;;;;;5072109;28;20403;-57
2022/01/09 03:17:26;;;;;;;5.60;5.17;;;;;;;;;;5072187;28;20395;-57
2022/01/09 03:19:53;;;;;;;5.77;5.33;;;;;;;;;;5071904;28;20481;-56
2022/01/09 03:22:19;;;;;;;4.70;4.40;;;;;;;;;;5072181;28;20789;-54
2022/01/09 03:24:45;;;;;;;5.83;5.27;;;;;;;;;;5072340;28;20442;-57
2022/01/09 03:27:11;;;;;;;5.53;5.13;;;;;;;;;;5072500;28;20760;-55
2022/01/09 03:29:38;;;;;;;5.60;5.20;;;;;;;;;;5072059;28;20420;-56
2022/01/09 03:32:05;;;;;;;5.13;4.80;;;;;;;;;;5071847;28;20468;-57
2022/01/09 03:34:31;;;;;;;6.33;5.10;;;;;;;;;;5071976;28;20415;-56
2022/01/09 03:36:57;;;;;;;4.80;4.47;;;;;;;;;;5071869;28;20412;-55
2022/01/09 03:39:23;;;;;;;5.20;4.70;;;;;;;;;;5071682;28;20756;-56
2022/01/09 03:41:49;;;;;;;5.60;5.20;;;;;;;;;;5071770;28;20475;-55
2022/01/09 03:44:15;;;;;;;5.67;5.27;;;;;;;;;;5071723;28;20764;-56
2022/01/09 03:46:40;;;;;;;5.17;4.77;;;;;;;;;;5072594;28;20422;-58
2022/01/09 03:49:06;;;;;;;5.97;5.47;;;;;;;;;;5075775;28;20436;-56
2022/01/09 03:51:36;;;;;;;5.87;5.40;;;;;;;;;;5075654;28;20413;-55
2022/01/09 03:54:03;;;;;;;7.13;5.30;;;;;;;;;;5075863;28;20455;-54
2022/01/09 03:56:29;;;;;;;5.40;5.00;;;;;;;;;;5074242;28;20414;-54
2022/01/09 03:58:55;;;;;;;5.80;5.40;;;;;;;;;;5075593;28;20486;-57
2022/01/09 04:01:21;;;;;;;5.20;4.90;;;;;;;;;;5075209;28;20557;-55
2022/01/09 04:03:47;;;;;;;5.70;5.30;;;;;;;;;;5074119;28;20409;-55
2022/01/09 04:06:13;;;;;;;5.40;4.90;;;;;;;;;;5075783;28;20954;-54
2022/01/09 04:08:39;;;;;;;6.30;5.60;;;;;;;;;;5075323;28;20413;-56
2022/01/09 04:11:06;;;;;;;5.97;5.17;;;;;;;;;;5075586;28;20497;-53
2022/01/09 04:13:32;;;;;;;5.83;5.43;;;;;;;;;;5075490;28;20407;-55
2022/01/09 04:15:59;;;;;;;5.70;5.10;;;;;;;;;;5075759;28;20466;-54
2022/01/09 04:18:25;;;;;;;5.60;5.10;;;;;;;;;;5075325;28;20414;-53
2022/01/09 04:20:51;;;;;;;5.70;5.20;;;;;;;;;;5074863;28;20474;-54
2022/01/09 04:23:18;;;;;;;8.63;5.33;;;;;;;;;;5075206;28;20403;-54
2022/01/09 04:25:45;;;;;;;5.73;5.20;;;;;;;;;;5075323;28;20488;-54
2022/01/09 04:28:11;;;;;;;5.90;5.30;;;;;;;;;;5073580;28;20418;-56
2022/01/09 04:30:37;;;;;;;5.20;4.90;;;;;;;;;;5074870;28;20418;-56
2022/01/09 04:33:03;;;;;;;5.60;5.10;;;;;;;;;;5074922;28;20417;-54
2022/01/09 04:35:29;;;;;;;6.03;5.53;;;;;;;;;;5074835;28;20418;-56
2022/01/09 04:37:56;;;;;;;7.50;6.07;;;;;;;;;;5074851;28;20407;-60
2022/01/09 04:40:22;;;;;;;5.50;5.10;;;;;;;;;;5074838;28;20468;-55
2022/01/09 04:42:55;;;;;;;5.23;4.93;;;;;;;;;;5074810;28;20411;-56
2022/01/09 04:45:23;;;;;;;4.87;4.53;;;;;;;;;;5074365;28;20399;-57
2022/01/09 04:47:50;;;;;;;5.80;5.40;;;;;;;;;;5074583;28;20785;-59
2022/01/09 04:50:22;;;;;;;6.03;5.50;;;;;;;;;;5074739;28;20387;-57
2022/01/09 04:52:51;;;;;;;5.83;5.40;;;;;;;;;;5074720;28;20419;-56
2022/01/09 04:55:17;;;;;;;5.27;4.83;;;;;;;;;;5074499;28;20433;-55
2022/01/09 04:57:43;;;;;;;5.40;5.00;;;;;;;;;;5073953;28;20922;-55
2022/01/09 05:00:10;;;;;;;5.50;5.10;;;;;;;;;;5074352;28;20485;-56
2022/01/09 05:02:36;;;;;;;6.00;5.50;;;;;;;;;;5074103;28;20447;-57
2022/01/09 05:05:04;;;;;;;5.77;5.27;;;;;;;;;;5074242;28;20498;-56
2022/01/09 05:07:30;;;;;;;8.43;5.10;;;;;;;;;;5074100;28;20446;-55
2022/01/09 05:09:56;;;;;;;5.90;5.30;;;;;;;;;;5074028;28;20926;-58
2022/01/09 05:12:22;;;;;;;5.50;5.07;;;;;;;;;;5074161;28;20907;-55
2022/01/09 05:14:48;;;;;;;4.80;4.50;;;;;;;;;;5074146;28;20454;-55
2022/01/09 05:17:14;;;;;;;5.37;4.77;;;;;;;;;;5074301;28;20411;-57
2022/01/09 05:19:41;;;;;;;5.20;4.80;;;;;;;;;;5074053;28;20457;-57
2022/01/09 05:22:08;;;;;;;4.83;4.27;;;;;;;;;;5073673;28;20478;-56
2022/01/09 05:24:35;;;;;;;4.93;4.67;;;;;;;;;;5074210;28;20426;-56
2022/01/09 05:27:01;;;;;;;5.17;4.77;;;;;;;;;;5074078;28;20415;-55
2022/01/09 05:29:27;;;;;;;4.87;4.47;;;;;;;;;;5074036;28;20406;-56
2022/01/09 05:31:53;;;;;;;5.23;4.93;;;;;;;;;;5073863;28;20411;-56
2022/01/09 05:34:19;;;;;;;4.60;4.30;;;;;;;;;;5073856;28;20403;-54
2022/01/09 05:36:45;;;;;;;5.70;5.20;;;;;;;;;;5073913;28;20439;-56
2022/01/09 05:39:11;;;;;;;5.60;5.10;;;;;;;;;;5073832;28;20484;-55
2022/01/09 05:41:37;;;;;;;4.90;4.50;;;;;;;;;;5073699;28;20474;-56
2022/01/09 05:44:03;;;;;;;5.40;5.00;;;;;;;;;;5073669;28;20464;-55
2022/01/09 05:46:29;;;;;;;4.40;4.00;;;;;;;;;;5073480;28;20415;-55
2022/01/09 05:48:55;;;;;;;5.40;5.00;;;;;;;;;;5073501;28;20407;-55
2022/01/09 05:51:21;;;;;;;4.73;4.40;;;;;;;;;;5073567;28;20414;-58
2022/01/09 05:53:47;;;;;;;4.70;4.40;;;;;;;;;;5072026;28;20470;-56
2022/01/09 05:56:13;;;;;;;4.30;4.10;;;;;;;;;;5073575;28;20438;-56
2022/01/09 05:58:39;;;;;;;4.60;4.40;;;;;;;;;;5073617;28;20442;-54
2022/01/09 06:01:06;;;;;;;4.50;4.23;;;;;;;;;;5073309;28;20478;-55
2022/01/09 06:03:32;;;;;;;4.20;4.10;;;;;;;;;;5073378;28;20413;-56
2022/01/09 06:05:58;;;;;;;4.47;4.17;;;;;;;;;;5073244;28;20410;-55
2022/01/09 06:08:24;;;;;;;4.90;4.60;;;;;;;;;;5073112;28;20411;-57
2022/01/09 06:10:50;;;;;;;3.93;3.70;;;;;;;;;;5072599;28;20415;-56
2022/01/09 06:13:16;;;;;;;3.97;3.70;;;;;;;;;;5073142;28;20811;-56
2022/01/09 06:15:42;;;;;;;4.80;4.40;;;;;;;;;;5071864;28;20438;-57
2022/01/09 06:18:08;;;;;;;4.03;3.90;;;;;;;;;;5073008;28;20439;-56
2022/01/09 06:20:34;;;;;;;3.90;3.70;;;;;;;;;;5072685;28;20475;-56
2022/01/09 06:23:00;;;;;;;5.97;3.80;;;;;;;;;;5073073;28;20406;-55
2022/01/09 06:25:26;;;;;;;4.23;4.03;;;;;;;;;;5072842;28;20422;-57
2022/01/09 06:27:52;;;;;;;4.50;4.10;;;;;;;;;;5072812;28;20403;-57
2022/01/09 06:30:18;;;;;;;3.80;3.70;;;;;;;;;;5072758;28;20418;-57
2022/01/09 06:32:44;;;;;;;3.67;3.53;;;;;;;;;;5071541;28;20419;-58
2022/01/09 06:35:10;;;;;;;4.13;3.90;;;;;;;;;;5071525;28;20741;-61
2022/01/09 06:37:36;;;;;;;3.83;3.60;;;;;;;;;;5072609;28;20493;-57
2022/01/09 06:40:03;;;;;;;3.97;3.77;;;;;;;;;;5071293;28;20485;-55
2022/01/09 06:42:29;;;;;;;4.30;4.10;;;;;;;;;;5072549;28;20407;-57
2022/01/09 06:44:55;;;;;;;3.80;3.60;;;;;;;;;;5072492;28;20575;-56
2022/01/09 06:47:21;;;;;;;3.63;3.53;;;;;;;;;;5072558;28;20514;-59
2022/01/09 06:49:48;;;;;;;3.77;3.60;;;;;;;;;;5072439;28;20403;-59
2022/01/09 06:52:14;;;;;;;3.60;3.50;;;;;;;;;;5072730;28;20425;-55
2022/01/09 06:54:40;;;;;;;3.50;3.40;;;;;;;;;;5072361;28;20411;-55
2022/01/09 06:57:06;;;;;;;3.33;3.23;;;;;;;;;;5072478;28;21650;-54
2022/01/09 06:59:32;;;;;;;3.50;3.30;;;;;;;;;;5072131;28;20903;-56
2022/01/09 07:01:59;;;;;;;3.30;3.20;;;;;;;;;;5072203;28;20438;-56
2022/01/09 07:04:25;;;;;;;3.63;3.53;;;;;;;;;;5072246;28;20481;-56
2022/01/09 07:06:51;;;;;;;3.43;3.23;;;;;;;;;;5072115;28;20831;-57
2022/01/09 07:09:17;;;;;;;3.40;3.30;;;;;;;;;;5072165;28;20407;-55
2022/01/09 07:11:43;;;;;;;3.33;3.23;;;;;;;;;;5072431;28;20407;-55
2022/01/09 07:14:09;;;;;;;3.53;3.43;;;;;;;;;;5072020;28;20974;-54
2022/01/09 07:16:35;;;;;;;3.47;3.30;;;;;;;;;;5072022;28;20402;-58
2022/01/09 07:19:01;;;;;;;3.00;2.90;;;;;;;;;;5072155;28;20429;-57
2022/01/09 07:21:28;;;;;;;2.80;2.80;;;;;;;;;;5071543;28;20522;-57
2022/01/09 07:23:54;;;;;;;3.50;3.40;;;;;;;;;;5072092;28;20889;-56
2022/01/09 07:26:20;;;;;;;3.10;3.00;;;;;;;;;;5070654;28;20572;-55
2022/01/09 07:28:46;;;;;;;3.17;3.07;;;;;;;;;;5070578;28;20989;-56
2022/01/09 07:31:12;;;;;;;3.40;3.30;;;;;;;;;;5072187;28;20417;-55
2022/01/09 07:33:38;;;;;;;16.13;7.87;;;;;;;;;;5071926;28;20949;-56
2022/01/09 07:36:04;;;;;;;6.50;5.87;;;;;;;;;;5071944;28;20414;-56
2022/01/09 07:38:30;;;;;;;3.90;3.80;;;;;;;;;;5071872;28;20406;-57
2022/01/09 07:40:57;;;;;;;4.13;3.93;;;;;;;;;;5070341;28;20466;-55
2022/01/09 07:43:23;;;;;;;3.17;3.03;;;;;;;;;;5072000;28;20407;-54
2022/01/09 07:45:49;;;;;;;3.53;3.43;;;;;;;;;;5071841;28;20438;-55
2022/01/09 07:48:15;;;;;;;2.93;2.83;;;;;;;;;;5071910;28;20409;-57
2022/01/09 07:50:41;;;;;;;2.83;2.73;;;;;;;;;;5071654;28;20399;-54
2022/01/09 07:53:07;;;;;;;3.23;3.13;;;;;;;;;;5071583;28;20409;-54
2022/01/09 07:55:33;;;;;;;3.20;3.10;;;;;;;;;;5071711;28;20766;-56
2022/01/09 07:57:59;;;;;;;3.10;3.00;;;;;;;;;;5071465;28;20401;-55
2022/01/09 08:00:26;;;;;;;3.20;3.10;;;;;;;;;;5070170;28;20450;-54
2022/01/09 08:02:52;;;;;;;3.20;3.10;;;;;;;;;;5071685;28;20525;-56
2022/01/09 08:05:18;;;;;;;3.23;3.13;;;;;;;;;;5070319;28;20943;-54
2022/01/09 08:07:44;;;;;;;3.27;3.17;;;;;;;;;;5071800;28;20417;-56
2022/01/09 08:10:11;;;;;;;2.90;2.80;;;;;;;;;;5070267;28;20502;-58
2022/01/09 08:12:37;;;;;;;3.10;3.00;;;;;;;;;;5071557;28;20414;-55
2022/01/09 08:15:04;;;;;;;3.50;3.40;;;;;;;;;;5071564;28;20493;-56
2022/01/09 08:17:30;;;;;;;3.17;3.07;;;;;;;;;;5071434;28;20403;-55
2022/01/09 08:19:56;;;;;;;3.57;3.47;;;;;;;;;;5071233;28;20985;-56
2022/01/09 08:22:28;;;;;;;2.90;2.80;;;;;;;;;;5071411;28;20414;-59
2022/01/09 08:24:54;;;;;;;2.70;2.63;;;;;;;;;;5071532;28;20744;-56
2022/01/09 08:27:20;;;;;;;3.30;3.20;;;;;;;;;;5070078;28;20419;-55
2022/01/09 08:29:46;;;;;;;3.30;3.20;;;;;;;;;;5053743;28;20415;-55
2022/01/09 08:32:13;;;;;;;3.17;3.07;;;;;;;;;;5071503;28;20401;-56
2022/01/09 08:34:39;;;;;;;3.40;3.30;;;;;;;;;;5074828;28;20403;-55
2022/01/09 08:37:11;;;;;;;3.47;3.37;;;;;;;;;;5074834;28;20509;-56
2022/01/09 08:39:37;;;;;;;3.13;3.03;;;;;;;;;;5073551;28;20427;-56
2022/01/09 08:42:03;;;;;;;3.00;2.90;;;;;;;;;;5074672;28;20436;-55
2022/01/09 08:44:29;;;;;;;3.30;3.20;;;;;;;;;;5074964;28;20415;-54
2022/01/09 08:46:55;;;;;;;3.40;3.30;;;;;;;;;;5074950;28;20415;-56
2022/01/09 08:49:21;;;;;;;3.30;3.20;;;;;;;;;;5074751;28;20407;-56
2022/01/09 08:51:47;;;;;;;3.40;3.30;;;;;;;;;;5074681;28;20411;-59
2022/01/09 08:54:13;;;;;;;2.90;2.80;;;;;;;;;;5074801;28;20407;-55
2022/01/09 08:56:39;;;;;;;3.40;3.30;;;;;;;;;;5074580;28;20406;-55
2022/01/09 08:59:06;;;;;;;3.10;3.00;;;;;;;;;;5073625;28;20483;-58
2022/01/09 09:01:32;;;;;;;3.13;3.03;;;;;;;;;;5074370;28;20545;-57
2022/01/09 09:03:58;;;;;;;3.30;3.10;;;;;;;;;;5073234;28;20472;-56
2022/01/09 09:06:24;;;;;;;2.80;2.70;;;;;;;;;;5074190;28;20760;-56
2022/01/09 09:08:50;;;;;;;3.30;3.20;;;;;;;;;;5074441;28;20864;-57
2022/01/09 09:11:16;;;;;;;3.30;3.20;;;;;;;;;;5074468;28;20411;-57
2022/01/09 09:13:42;;;;;;;3.17;3.07;;;;;;;;;;5074528;28;20402;-57
2022/01/09 09:16:09;;;;;;;3.20;3.10;;;;;;;;;;5074384;28;20470;-56
2022/01/09 09:18:35;;;;;;;3.40;3.30;;;;;;;;;;5072948;28;20443;-57
2022/01/09 09:21:01;;;;;;;3.40;3.30;;;;;;;;;;5073850;28;20482;-55
2022/01/09 09:23:27;;;;;;;3.00;2.90;;;;;;;;;;5074016;28;20403;-58
2022/01/09 09:25:53;;;;;;;3.33;3.23;;;;;;;;;;5074081;28;20422;-58
2022/01/09 09:28:20;;;;;;;3.37;3.27;;;;;;;;;;5073997;28;20431;-56
2022/01/09 09:30:46;;;;;;;3.17;3.07;;;;;;;;;;5074350;28;20419;-60
2022/01/09 09:33:12;;;;;;;3.30;3.20;;;;;;;;;;5074195;28;20411;-56
2022/01/09 09:35:38;;;;;;;3.17;3.07;;;;;;;;;;5073956;28;20814;-59
2022/01/09 09:38:05;;;;;;;3.67;3.40;;;;;;;;;;5073934;28;20418;-57
2022/01/09 09:40:31;;;;;;;3.30;3.20;;;;;;;;;;5074119;28;20521;-59
2022/01/09 09:42:57;;;;;;;3.17;3.07;;;;;;;;;;5074085;28;20782;-60
2022/01/09 09:45:23;;;;;;;3.20;3.10;;;;;;;;;;5073703;28;20537;-58
2022/01/09 09:47:50;;;;;;;3.33;3.23;;;;;;;;;;5073744;28;20410;-58
2022/01/09 09:50:16;;;;;;;3.73;3.53;;;;;;;;;;5073825;28;20403;-57
2022/01/09 09:52:42;;;;;;;3.37;3.27;;;;;;;;;;5073651;28;20504;-58
2022/01/09 09:55:09;;;;;;;3.73;3.53;;;;;;;;;;5072357;28;20415;-57
2022/01/09 09:57:35;;;;;;;3.40;3.30;;;;;;;;;;5073360;28;20406;-56
2022/01/09 10:00:04;;;;;;;4.23;4.03;;;;;;;;;;5073364;28;20470;-57
2022/01/09 10:02:40;;;;;;;3.60;3.40;;;;;;;;;;5073122;28;20436;-57
2022/01/09 10:05:07;;;;;;;3.70;3.60;;;;;;;;;;5073124;28;20398;-57
2022/01/09 10:07:33;;;;;;;3.60;3.40;;;;;;;;;;5073320;28;20903;-56
2022/01/09 10:10:10;;;;;;;3.57;3.47;;;;;;;;;;5071890;28;20414;-58
2022/01/09 10:12:36;;;;;;;4.47;4.17;;;;;;;;;;5073883;28;20430;-54
2022/01/09 10:15:06;;;;;;;3.33;3.20;;;;;;;;;;5073475;28;20406;-57
2022/01/09 10:17:33;;;;;;;3.63;3.53;;;;;;;;;;5072145;28;20419;-59
2022/01/09 10:20:00;;;;;;;3.70;3.60;;;;;;;;;;5072958;28;20457;-60
2022/01/09 10:22:32;;;;;;;3.70;3.60;;;;;;;;;;5073191;28;20415;-58
2022/01/09 10:24:58;;;;;;;3.43;3.33;;;;;;;;;;5072154;28;20749;-56
2022/01/09 10:27:35;;;;;;;3.80;3.60;;;;;;;;;;5073037;28;20419;-57
2022/01/09 10:30:02;;;;;;;3.60;3.50;;;;;;;;;;5072918;28;20414;-56
2022/01/09 10:32:29;;;;;;;4.60;4.30;;;;;;;;;;5072940;28;20419;-55
2022/01/09 10:35:05;;;;;;;3.87;3.70;;;;;;;;;;5072925;28;20406;-57
2022/01/09 10:37:31;;;;;;;3.67;3.57;;;;;;;;;;5072697;28;20417;-56
2022/01/09 10:40:00;;;;;;;3.70;3.60;;;;;;;;;;5072847;28;20875;-55
2022/01/09 10:42:26;;;;;;;3.50;3.40;;;;;;;;;;5072818;28;20419;-56
2022/01/09 10:44:53;;;;;;;3.60;3.50;;;;;;;;;;5072938;28;20468;-56
2022/01/09 10:47:19;;;;;;;3.50;3.30;;;;;;;;;;5073033;28;20414;-56
2022/01/09 10:49:49;;;;;;;3.30;3.20;;;;;;;;;;5072667;28;20413;-55
2022/01/09 10:52:18;;;;;;;3.53;3.43;;;;;;;;;;5072536;28;20422;-56
2022/01/09 10:54:46;;;;;;;3.50;3.20;;;;;;;;;;5072606;28;20407;-56
2022/01/09 10:57:13;;;;;;;3.10;3.00;;;;;;;;;;5072619;28;20433;-56
2022/01/09 10:59:39;;;;;;;3.20;3.10;;;;;;;;;;5071281;28;20433;-56
2022/01/09 11:02:05;;;;;;;2.70;2.60;;;;;;;;;;5071327;28;20987;-57
2022/01/09 11:04:32;;;;;;;3.10;3.00;;;;;;;;;;5072879;28;20406;-58
2022/01/09 11:06:59;;;;;;;3.30;3.20;;;;;;;;;;5072827;28;20778;-56
2022/01/09 11:09:26;;;;;;;3.10;3.00;;;;;;;;;;5072602;28;20502;-56
2022/01/09 11:11:53;;;;;;;3.23;3.13;;;;;;;;;;5072410;28;20894;-56
2022/01/09 11:14:21;;;;;;;3.20;3.10;;;;;;;;;;5072537;28;20445;-56
2022/01/09 11:16:51;;;;;;;3.23;3.13;;;;;;;;;;5072735;28;20572;-54
2022/01/09 11:19:18;;;;;;;3.10;3.00;;;;;;;;;;5072560;28;20417;-57
2022/01/09 11:21:45;;;;;;;3.40;3.30;;;;;;;;;;5072397;28;20474;-58
2022/01/09 11:24:11;;;;;;;3.10;3.00;;;;;;;;;;5072761;28;20411;-56
2022/01/09 11:26:56;;;;;;;3.00;2.90;;;;;;;;;;5070947;28;20415;-53
2022/01/09 11:29:29;;;;;;;3.00;2.90;;;;;;;;;;5070942;28;20410;-55
2022/01/09 11:32:07;;;;;;;3.50;3.40;;;;;;;;;;5072313;28;20748;-55
2022/01/09 11:34:50;;;;;;;3.20;3.10;;;;;;;;;;5072211;28;20457;-56
2022/01/09 11:37:27;;;;;;;3.13;3.03;;;;;;;;;;5072105;28;20410;-54
2022/01/09 11:39:53;;;;;;;3.23;3.13;;;;;;;;;;5071952;28;20454;-55
2022/01/09 11:42:19;;;;;;;3.00;2.90;;;;;;;;;;5072200;28;20422;-55
2022/01/09 11:44:48;;;;;;;3.17;3.07;;;;;;;;;;5072174;28;20413;-55
2022/01/09 11:47:15;;;;;;;3.40;3.30;;;;;;;;;;5072209;28;20423;-57
2022/01/09 11:49:53;;;;;;;3.63;3.43;;;;;;;;;;5072075;28;20465;-57
2022/01/09 11:52:20;;;;;;;7.20;3.70;;;;;;;;;;5070506;28;20427;-58
2022/01/09 11:54:49;;;;;;;3.67;3.57;;;;;;;;;;5072353;28;20401;-60
2022/01/09 11:57:20;;;;;;;3.50;3.40;;;;;;;;;;5070506;28;20457;-60
2022/01/09 11:59:48;;;;;;;3.67;3.57;;;;;;;;;;5072139;28;20399;-58
2022/01/09 12:02:17;;;;;;;3.67;3.57;;;;;;;;;;5070674;28;20539;-57
2022/01/09 12:04:45;;;;;;;3.83;3.63;;;;;;;;;;5071912;28;20434;-56
2022/01/09 12:07:12;;;;;;;3.30;3.20;;;;;;;;;;5071927;28;20410;-55
2022/01/09 12:09:41;;;;;;;3.20;3.00;;;;;;;;;;5075571;28;20407;-56
2022/01/09 12:12:09;;;;;;;3.43;3.33;;;;;;;;;;5075452;28;20406;-57
2022/01/09 12:14:58;;;;;;;3.60;3.50;;;;;;;;;;5074028;28;20406;-55
2022/01/09 12:17:25;;;;;;;3.30;3.20;;;;;;;;;;5075284;28;20923;-59
2022/01/09 12:20:07;;;;;;;3.50;3.40;;;;;;;;;;5075084;28;20418;-57
2022/01/09 12:22:49;;;;;;;3.10;3.00;;;;;;;;;;5075611;28;20771;-58
2022/01/09 12:25:24;;;;;;;3.60;3.50;;;;;;;;;;5075496;28;20414;-59
2022/01/09 12:27:57;;;;;;;3.70;3.60;;;;;;;;;;5075353;28;20418;-56
2022/01/09 12:33:01;;;;;;;4.47;4.17;;;;;;;;;;5075524;28;20418;-55
2022/01/09 12:35:27;;;;;;;4.70;4.30;;;;;;;;;;5075009;28;20764;-57
2022/01/09 12:37:55;;;;;;;3.77;3.67;;;;;;;;;;5075145;28;20445;-56
2022/01/09 12:40:24;;;;;;;3.60;3.50;;;;;;;;;;5075467;28;20522;-57
2022/01/09 12:42:51;;;;;;;4.17;3.97;;;;;;;;;;5074950;28;20407;-58
2022/01/09 12:45:20;;;;;;;3.80;3.70;;;;;;;;;;5075062;28;20402;-54
2022/01/09 12:47:46;;;;;;;3.90;3.70;;;;;;;;;;5075141;28;20419;-56
2022/01/09 12:50:12;;;;;;;4.87;4.57;;;;;;;;;;5074943;28;20505;-56
2022/01/09 12:52:38;;;;;;;3.40;3.20;;;;;;;;;;5074884;28;20968;-55
2022/01/09 12:55:10;;;;;;;3.50;3.40;;;;;;;;;;5074818;28;20502;-55
2022/01/09 12:57:49;;;;;;;3.00;2.90;;;;;;;;;;5074799;28;20891;-55
2022/01/09 13:00:15;;;;;;;3.00;2.90;;;;;;;;;;5074554;28;20454;-55
2022/01/09 13:02:41;;;;;;;3.40;3.30;;;;;;;;;;5074569;28;20421;-57
2022/01/09 13:05:07;;;;;;;3.80;3.43;;;;;;;;;;5074440;28;20828;-56
2022/01/09 13:07:33;;;;;;;3.10;3.00;;;;;;;;;;5074311;28;20442;-56
2022/01/09 13:10:10;;;;;;;3.67;3.47;;;;;;;;;;5074508;28;20454;-56
2022/01/09 13:12:36;;;;;;;4.30;4.00;;;;;;;;;;5074155;28;20818;-57
2022/01/09 13:15:02;;;;;;;3.90;3.60;;;;;;;;;;5074405;28;20410;-57
2022/01/09 13:17:29;;;;;;;3.87;3.73;;;;;;;;;;5074142;28;20407;-57
2022/01/09 13:19:55;;;;;;;4.27;4.07;;;;;;;;;;5073643;28;20461;-58
2022/01/09 13:22:21;;;;;;;4.33;4.13;;;;;;;;;;5074182;28;20433;-55
2022/01/09 13:24:47;;;;;;;4.03;3.83;;;;;;;;;;5074364;28;20415;-56
2022/01/09 13:27:18;;;;;;;4.60;4.40;;;;;;;;;;5074491;28;20752;-56
2022/01/09 13:29:54;;;;;;;4.67;4.27;;;;;;;;;;5074282;28;20403;-57
2022/01/09 13:32:22;;;;;;;4.40;4.20;;;;;;;;;;5074208;28;20537;-55
2022/01/09 13:34:48;;;;;;;4.27;3.97;;;;;;;;;;5072942;28;20497;-54
2022/01/09 13:37:15;;;;;;;5.20;4.80;;;;;;;;;;5074055;28;20430;-56
2022/01/09 13:39:42;;;;;;;5.20;4.90;;;;;;;;;;5074180;28;20505;-56
2022/01/09 13:42:12;;;;;;;6.00;5.47;;;;;;;;;;5073729;28;20414;-55
2022/01/09 13:44:42;;;;;;;5.90;5.50;;;;;;;;;;5073680;28;20462;-55
2022/01/09 13:47:08;;;;;;;5.53;5.07;;;;;;;;;;5073883;28;20411;-56
2022/01/09 13:49:36;;;;;;;6.53;6.00;;;;;;;;;;5073878;28;20759;-57
2022/01/09 13:52:21;;;;;;;5.17;4.87;;;;;;;;;;5073594;28;20509;-56
2022/01/09 13:55:05;;;;;;;5.70;5.30;;;;;;;;;;5073712;28;20430;-55
2022/01/09 13:57:31;;;;;;;5.77;5.37;;;;;;;;;;5073303;28;20413;-56
2022/01/09 14:00:03;;;;;;;5.30;4.90;;;;;;;;;;5073500;28;20398;-55
2022/01/09 14:02:38;;;;;;;5.00;4.70;;;;;;;;;;5073343;28;20426;-56
2022/01/09 14:05:15;;;;;;;5.20;4.90;;;;;;;;;;5073528;28;20402;-55
2022/01/09 14:07:51;;;;;;;4.90;4.60;;;;;;;;;;5073672;28;20771;-56
2022/01/09 14:10:18;;;;;;;5.23;4.93;;;;;;;;;;5072981;28;20923;-57
2022/01/09 14:12:45;;;;;;;4.67;4.27;;;;;;;;;;5073280;28;20419;-55
2022/01/09 14:15:11;;;;;;;4.40;4.20;;;;;;;;;;5073453;28;20613;-55
2022/01/09 14:17:37;;;;;;;4.60;4.40;;;;;;;;;;5073166;28;20457;-58
2022/01/09 14:20:18;;;;;;;5.00;4.70;;;;;;;;;;5072673;28;22111;-55
2022/01/09 14:22:48;;;;;;;4.10;3.90;;;;;;;;;;5073274;28;20419;-56
2022/01/09 14:25:16;;;;;;;4.47;4.27;;;;;;;;;;5073330;28;20402;-56
2022/01/09 14:27:44;;;;;;;4.53;4.13;;;;;;;;;;5073379;28;20483;-55
2022/01/09 14:30:30;;;;;;;4.30;4.10;;;;;;;;;;5071026;28;20449;-56
2022/01/09 14:33:09;;;;;;;4.20;4.00;;;;;;;;;;5072876;28;20403;-56
2022/01/09 14:35:39;;;;;;;4.00;3.90;;;;;;;;;;5072935;28;20413;-55
2022/01/09 14:38:10;;;;;;;3.80;3.50;;;;;;;;;;5071405;28;20410;-54
2022/01/09 14:40:36;;;;;;;4.60;4.20;;;;;;;;;;5072418;28;20470;-54
2022/01/09 14:43:03;;;;;;;3.77;3.67;;;;;;;;;;5071285;28;20938;-54
2022/01/09 14:45:29;;;;;;;3.17;3.07;;;;;;;;;;5072920;28;20847;-53
2022/01/09 14:47:55;;;;;;;3.77;3.60;;;;;;;;;;5072628;28;20449;-54